Port Orchard, Washington
Current Conditions -  °F | °C
As of 11:15 AM on Thursday 30 Oct 2014 (Local Time) from KPWT Reporting Station
Broken Clouds Broken Clouds  
Wind Chill: 55°   Ceiling: 5000
Heat Index: 55°   Visibility: 10mi
Dew Point: 54°   Wind: 0mph
Humidity: 94%   Direction: NA
Pressure: 29.86"   Gusts: NA
Location:  47.53°N, 122.64°W
Report Text: KPWT 301815Z AUTO 00000KT 10SM SCT042 BKN050 13/12 A2986 RMK AO1
Loading
Personal Weather Stations






























Interactive Weather Map
Tropical Storm Tracking
New forecast layout! Learn more

10-Day Weather Forecast

Advertisements
Track Severe Weather on mobile